Time;durP1;ratioP1;P1;durP2;ratioP2;P2;SDS_P1;SDS_P2;PMS_P1;PMS_P2;Temp;Humidity;BMP_temperature;BMP_pressure;BME280_temperature;BME280_humidity;BME280_pressure;Samples;Min_cycle;Max_cycle;Signal;HPM_P1;HPM_P2
2024/03/01 00:00:11;;;;;;;22.37;13.17;;;;;;;;;;6317518;28;24929;-82
2024/03/01 00:03:13;;;;;;;20.05;12.80;;;;;;;;;;6303551;28;24566;-84
2024/03/01 00:06:15;;;;;;;19.88;13.18;;;;;;;;;;6318575;28;24419;-84
2024/03/01 00:09:17;;;;;;;20.42;13.25;;;;;;;;;;6310057;28;24594;-87
2024/03/01 00:12:20;;;;;;;22.25;12.63;;;;;;;;;;6317256;28;24426;-85
2024/03/01 00:15:22;;;;;;;24.73;13.55;;;;;;;;;;6308095;28;24830;-86
2024/03/01 00:18:24;;;;;;;19.27;13.13;;;;;;;;;;6318984;28;24438;-85
2024/03/01 00:21:26;;;;;;;22.52;13.70;;;;;;;;;;6298843;28;24619;-82
2024/03/01 00:24:29;;;;;;;22.10;13.90;;;;;;;;;;6321879;28;24840;-85
2024/03/01 00:27:32;;;;;;;20.60;13.48;;;;;;;;;;6303013;28;24435;-84
2024/03/01 00:30:34;;;;;;;21.37;13.60;;;;;;;;;;6299118;28;24489;-85
2024/03/01 00:33:35;;;;;;;23.20;14.07;;;;;;;;;;6298695;28;24638;-82
2024/03/01 00:36:37;;;;;;;23.23;13.85;;;;;;;;;;6293702;28;24494;-83
2024/03/01 00:39:39;;;;;;;23.25;14.35;;;;;;;;;;6314067;28;24429;-83
2024/03/01 00:42:42;;;;;;;21.60;13.80;;;;;;;;;;6298380;28;24806;-86
2024/03/01 00:45:44;;;;;;;23.92;14.90;;;;;;;;;;6293030;28;24438;-83
2024/03/01 00:48:46;;;;;;;22.48;14.63;;;;;;;;;;6293742;28;24418;-84
2024/03/01 00:51:48;;;;;;;21.73;14.18;;;;;;;;;;6289356;28;24568;-83
2024/03/01 00:54:50;;;;;;;18.77;13.68;;;;;;;;;;6290980;28;24432;-84
2024/03/01 00:57:53;;;;;;;22.83;13.18;;;;;;;;;;6294269;28;24498;-84
2024/03/01 01:00:55;;;;;;;19.88;12.95;;;;;;;;;;6294616;28;24608;-85
2024/03/01 01:03:56;;;;;;;21.80;12.93;;;;;;;;;;6291979;28;24466;-83
2024/03/01 01:06:58;;;;;;;20.08;12.63;;;;;;;;;;6292265;28;24429;-83
2024/03/01 01:10:00;;;;;;;19.25;12.63;;;;;;;;;;6294527;28;24427;-84
2024/03/01 01:13:04;;;;;;;21.33;11.63;;;;;;;;;;6289583;28;24492;-85
2024/03/01 01:16:06;;;;;;;19.58;11.60;;;;;;;;;;6322294;28;24646;-84
2024/03/01 01:19:08;;;;;;;18.25;11.10;;;;;;;;;;6302434;28;24454;-85
2024/03/01 01:22:10;;;;;;;19.95;10.50;;;;;;;;;;6304290;28;24429;-84
2024/03/01 01:25:12;;;;;;;16.43;10.50;;;;;;;;;;6291925;28;24434;-84
2024/03/01 01:28:15;;;;;;;17.73;10.10;;;;;;;;;;6299274;28;24846;-85
2024/03/01 01:31:17;;;;;;;18.83;10.57;;;;;;;;;;6326380;28;24489;-84
2024/03/01 01:34:18;;;;;;;19.27;9.70;;;;;;;;;;6301037;28;24425;-85
2024/03/01 01:37:20;;;;;;;17.63;10.10;;;;;;;;;;6320222;28;24433;-85
2024/03/01 01:40:22;;;;;;;18.80;9.32;;;;;;;;;;6324933;28;24493;-84
2024/03/01 01:43:25;;;;;;;17.15;8.65;;;;;;;;;;6297325;28;24434;-84
2024/03/01 01:46:27;;;;;;;17.37;8.77;;;;;;;;;;6302718;28;24530;-84
2024/03/01 01:49:30;;;;;;;17.77;8.77;;;;;;;;;;6319662;28;24480;-85
2024/03/01 01:52:32;;;;;;;15.30;7.72;;;;;;;;;;6299226;28;24695;-86
2024/03/01 01:55:34;;;;;;;12.23;7.40;;;;;;;;;;6303418;28;24587;-85
2024/03/01 01:58:37;;;;;;;13.52;7.00;;;;;;;;;;6316789;28;24494;-85
2024/03/01 02:01:40;;;;;;;12.15;6.90;;;;;;;;;;6293481;28;24800;-84
2024/03/01 02:04:42;;;;;;;11.47;7.07;;;;;;;;;;6298234;28;25048;-84
2024/03/01 02:07:44;;;;;;;13.98;7.13;;;;;;;;;;6298973;28;24471;-85
2024/03/01 02:10:46;;;;;;;15.68;7.38;;;;;;;;;;6304277;28;24616;-86
2024/03/01 02:13:57;;;;;;;13.07;6.82;;;;;;;;;;6294788;28;24495;-84
2024/03/01 02:16:59;;;;;;;13.23;6.40;;;;;;;;;;6310097;28;24515;-84
2024/03/01 02:20:01;;;;;;;15.13;6.72;;;;;;;;;;6298092;28;24515;-86
2024/03/01 02:23:08;;;;;;;10.98;6.60;;;;;;;;;;6297781;28;24427;-84
2024/03/01 02:26:11;;;;;;;10.30;6.05;;;;;;;;;;6309595;28;24450;-84
2024/03/01 02:29:13;;;;;;;10.87;6.30;;;;;;;;;;6323990;28;24526;-84
2024/03/01 02:32:15;;;;;;;11.52;5.93;;;;;;;;;;6319366;28;24421;-85
2024/03/01 02:35:17;;;;;;;14.75;6.15;;;;;;;;;;6319165;28;24419;-86
2024/03/01 02:38:19;;;;;;;11.13;5.57;;;;;;;;;;6323118;28;24501;-84
2024/03/01 02:41:22;;;;;;;12.25;6.03;;;;;;;;;;6322014;28;24777;-84
2024/03/01 02:44:24;;;;;;;13.48;6.35;;;;;;;;;;6322777;28;24417;-84
2024/03/01 02:47:25;;;;;;;11.05;6.10;;;;;;;;;;6318361;28;24419;-84
2024/03/01 02:50:27;;;;;;;11.50;6.30;;;;;;;;;;6323379;28;24414;-85
2024/03/01 02:53:30;;;;;;;13.33;5.87;;;;;;;;;;6321787;28;24410;-84
2024/03/01 02:56:33;;;;;;;14.32;6.40;;;;;;;;;;6324770;28;24425;-85
2024/03/01 02:59:36;;;;;;;12.15;6.43;;;;;;;;;;6322990;28;24832;-85
2024/03/01 03:02:38;;;;;;;9.02;6.00;;;;;;;;;;6323526;28;24645;-85
2024/03/01 03:05:39;;;;;;;11.38;6.13;;;;;;;;;;6322036;28;24456;-87
2024/03/01 03:08:41;;;;;;;11.55;6.20;;;;;;;;;;6326649;28;24424;-84
2024/03/01 03:11:45;;;;;;;13.07;6.63;;;;;;;;;;6321683;28;25281;-84
2024/03/01 03:14:46;;;;;;;11.65;5.70;;;;;;;;;;6325247;28;24824;-84
2024/03/01 03:17:48;;;;;;;10.68;5.68;;;;;;;;;;6332147;28;24418;-84
2024/03/01 03:20:50;;;;;;;11.55;6.60;;;;;;;;;;6323503;28;24417;-85
2024/03/01 03:23:52;;;;;;;10.82;5.95;;;;;;;;;;6331072;28;24429;-85
2024/03/01 03:26:56;;;;;;;11.48;5.93;;;;;;;;;;6335704;28;24551;-85
2024/03/01 03:29:58;;;;;;;11.07;6.07;;;;;;;;;;6324748;28;24487;-84
2024/03/01 03:33:00;;;;;;;11.27;5.65;;;;;;;;;;6321490;28;24444;-85
2024/03/01 03:36:02;;;;;;;11.82;6.65;;;;;;;;;;6320884;28;24429;-85
2024/03/01 03:39:06;;;;;;;11.77;5.68;;;;;;;;;;6324250;28;24434;-84
2024/03/01 03:42:09;;;;;;;9.52;5.25;;;;;;;;;;6319550;28;24415;-84
2024/03/01 03:45:12;;;;;;;9.40;5.00;;;;;;;;;;6319908;28;24421;-85
2024/03/01 03:48:13;;;;;;;10.82;5.22;;;;;;;;;;6301214;28;24845;-85
2024/03/01 03:51:23;;;;;;;12.43;4.95;;;;;;;;;;6294960;28;24830;-84
2024/03/01 03:54:28;;;;;;;9.85;5.13;;;;;;;;;;6293669;28;24806;-85
2024/03/01 03:57:31;;;;;;;10.82;4.97;;;;;;;;;;6297318;28;24418;-85
2024/03/01 04:00:33;;;;;;;12.27;5.35;;;;;;;;;;6293583;28;24423;-83
2024/03/01 04:03:35;;;;;;;9.98;5.43;;;;;;;;;;6292924;28;24481;-84
2024/03/01 04:06:37;;;;;;;11.48;5.40;;;;;;;;;;6321596;28;24423;-87
2024/03/01 04:09:39;;;;;;;9.82;5.72;;;;;;;;;;6326487;28;24444;-84
2024/03/01 04:12:48;;;;;;;9.43;4.93;;;;;;;;;;6326479;28;25055;-82
2024/03/01 04:15:50;;;;;;;10.15;5.13;;;;;;;;;;6328158;28;24427;-84
2024/03/01 04:18:53;;;;;;;9.07;5.05;;;;;;;;;;6323449;28;24497;-84
2024/03/01 04:21:56;;;;;;;11.48;5.57;;;;;;;;;;6322797;28;24437;-85
2024/03/01 04:24:58;;;;;;;8.48;5.00;;;;;;;;;;6329587;28;24494;-85
2024/03/01 04:28:01;;;;;;;10.82;5.50;;;;;;;;;;6326503;28;24419;-84
2024/03/01 04:31:04;;;;;;;12.70;5.88;;;;;;;;;;6321888;28;24441;-84
2024/03/01 04:34:06;;;;;;;12.20;5.90;;;;;;;;;;6318214;28;24901;-84
2024/03/01 04:37:08;;;;;;;8.38;5.35;;;;;;;;;;6298403;28;24422;-85
2024/03/01 04:40:11;;;;;;;12.15;5.80;;;;;;;;;;6323147;28;24455;-84
2024/03/01 04:43:14;;;;;;;13.82;6.38;;;;;;;;;;6296024;28;24427;-89
2024/03/01 04:46:16;;;;;;;12.50;5.97;;;;;;;;;;6325720;28;24418;-84
2024/03/01 04:49:18;;;;;;;11.77;6.00;;;;;;;;;;6306408;28;24435;-86
2024/03/01 04:52:25;;;;;;;12.55;6.55;;;;;;;;;;6324974;28;24436;-85
2024/03/01 04:55:27;;;;;;;13.90;6.53;;;;;;;;;;6295950;28;24446;-84
2024/03/01 04:58:30;;;;;;;12.13;6.90;;;;;;;;;;6307869;28;25050;-84
2024/03/01 05:01:32;;;;;;;14.00;6.80;;;;;;;;;;6323698;28;24433;-86
2024/03/01 05:04:34;;;;;;;12.02;7.13;;;;;;;;;;6324341;28;24816;-84
2024/03/01 05:07:36;;;;;;;14.10;6.65;;;;;;;;;;6320802;28;24494;-83
2024/03/01 05:10:38;;;;;;;12.73;7.18;;;;;;;;;;6322043;28;24482;-85
2024/03/01 05:13:41;;;;;;;13.65;6.95;;;;;;;;;;6318897;28;24415;-81
2024/03/01 05:16:43;;;;;;;11.80;7.05;;;;;;;;;;6319520;28;24414;-86
2024/03/01 05:19:45;;;;;;;12.68;7.50;;;;;;;;;;6323638;28;24832;-85
2024/03/01 05:22:47;;;;;;;12.02;7.20;;;;;;;;;;6324520;28;24412;-85
2024/03/01 05:25:51;;;;;;;13.02;6.90;;;;;;;;;;6322429;28;24418;-87
2024/03/01 05:28:55;;;;;;;11.55;7.15;;;;;;;;;;6323376;28;24422;-84
2024/03/01 05:31:57;;;;;;;14.30;7.20;;;;;;;;;;6321833;28;24424;-85
2024/03/01 05:34:59;;;;;;;12.75;7.07;;;;;;;;;;6321382;28;24429;-83
2024/03/01 05:38:01;;;;;;;14.23;7.32;;;;;;;;;;6325705;28;24781;-85
2024/03/01 05:41:03;;;;;;;13.45;7.32;;;;;;;;;;6325863;28;24418;-86
2024/03/01 05:44:08;;;;;;;12.70;6.90;;;;;;;;;;6325232;28;24465;-84
2024/03/01 05:47:10;;;;;;;13.70;7.50;;;;;;;;;;6327222;28;24422;-87
2024/03/01 05:50:14;;;;;;;16.03;7.33;;;;;;;;;;6320496;28;24421;-85
2024/03/01 05:53:15;;;;;;;15.45;7.28;;;;;;;;;;6320752;28;24418;-84
2024/03/01 05:56:18;;;;;;;13.80;6.60;;;;;;;;;;6323439;28;24625;-88
2024/03/01 05:59:22;;;;;;;11.10;7.00;;;;;;;;;;6322336;28;24429;-85
2024/03/01 06:02:24;;;;;;;15.80;6.90;;;;;;;;;;6335652;28;24418;-85
2024/03/01 06:05:26;;;;;;;12.60;7.13;;;;;;;;;;6320496;28;24550;-85
2024/03/01 06:08:28;;;;;;;13.73;7.13;;;;;;;;;;6318457;28;24616;-85
2024/03/01 06:11:30;;;;;;;13.27;7.00;;;;;;;;;;6322329;28;24468;-86
2024/03/01 06:14:33;;;;;;;10.60;6.35;;;;;;;;;;6321677;28;24422;-88
2024/03/01 06:17:36;;;;;;;11.60;6.15;;;;;;;;;;6326421;28;24449;-87
2024/03/01 06:20:38;;;;;;;10.18;6.53;;;;;;;;;;6322391;28;24516;-87
2024/03/01 06:23:40;;;;;;;13.50;6.80;;;;;;;;;;6320020;28;24421;-87
2024/03/01 06:26:42;;;;;;;10.95;6.65;;;;;;;;;;6321447;28;24422;-85
2024/03/01 06:29:45;;;;;;;16.23;7.10;;;;;;;;;;6321237;28;24429;-84
2024/03/01 06:32:46;;;;;;;15.00;6.90;;;;;;;;;;6321958;28;24485;-84
2024/03/01 06:35:48;;;;;;;11.13;6.80;;;;;;;;;;6323387;28;24415;-84
2024/03/01 06:38:50;;;;;;;11.57;6.70;;;;;;;;;;6315230;28;24530;-87
2024/03/01 06:41:52;;;;;;;13.03;6.27;;;;;;;;;;6318741;28;24439;-83
2024/03/01 06:44:55;;;;;;;14.50;6.88;;;;;;;;;;6316268;28;24418;-85
2024/03/01 06:47:57;;;;;;;9.27;5.97;;;;;;;;;;6321687;28;24833;-85
2024/03/01 06:50:59;;;;;;;10.77;6.03;;;;;;;;;;6320417;28;24430;-86
2024/03/01 06:54:00;;;;;;;10.90;5.97;;;;;;;;;;6324531;28;24458;-86
2024/03/01 06:57:02;;;;;;;9.60;6.03;;;;;;;;;;6327907;28;24433;-84
2024/03/01 07:00:08;;;;;;;12.13;5.85;;;;;;;;;;6326385;28;24444;-84
2024/03/01 07:03:09;;;;;;;10.83;5.77;;;;;;;;;;6327403;28;24538;-84
2024/03/01 07:06:11;;;;;;;13.60;5.90;;;;;;;;;;6305403;28;24530;-85
2024/03/01 07:09:13;;;;;;;9.90;5.60;;;;;;;;;;6303319;28;24818;-83
2024/03/01 07:12:15;;;;;;;10.90;5.60;;;;;;;;;;6319869;28;24623;-85
2024/03/01 07:15:18;;;;;;;11.95;6.10;;;;;;;;;;6328614;28;24492;-84
2024/03/01 07:18:20;;;;;;;12.82;7.05;;;;;;;;;;6325688;28;24473;-85
2024/03/01 07:21:22;;;;;;;12.63;7.03;;;;;;;;;;6326646;28;24501;-84
2024/03/01 07:24:24;;;;;;;12.73;6.57;;;;;;;;;;6321601;28;24422;-83
2024/03/01 07:27:26;;;;;;;12.27;6.55;;;;;;;;;;6324118;28;24414;-86
2024/03/01 07:30:29;;;;;;;14.30;6.22;;;;;;;;;;6325716;28;24422;-84
2024/03/01 07:33:31;;;;;;;11.55;5.85;;;;;;;;;;6322824;28;24465;-88
2024/03/01 07:36:33;;;;;;;10.70;5.95;;;;;;;;;;6327605;28;25211;-87
2024/03/01 07:39:37;;;;;;;13.52;5.57;;;;;;;;;;6334433;28;24424;-87
2024/03/01 07:42:38;;;;;;;10.83;4.97;;;;;;;;;;6328327;28;24425;-85
2024/03/01 07:45:42;;;;;;;9.83;5.00;;;;;;;;;;6325400;28;24421;-83
2024/03/01 07:48:44;;;;;;;13.88;4.80;;;;;;;;;;6327452;28;24489;-87
2024/03/01 07:51:45;;;;;;;10.10;4.70;;;;;;;;;;6331481;28;24700;-86
2024/03/01 07:54:47;;;;;;;8.55;4.50;;;;;;;;;;6321583;28;24494;-88
2024/03/01 07:57:49;;;;;;;8.30;4.35;;;;;;;;;;6326766;28;24442;-84
2024/03/01 08:00:53;;;;;;;9.30;4.50;;;;;;;;;;6325698;28;24839;-88
2024/03/01 08:03:54;;;;;;;9.85;4.68;;;;;;;;;;6326800;28;24436;-86
2024/03/01 08:06:56;;;;;;;10.13;4.40;;;;;;;;;;6328309;28;24463;-85
2024/03/01 08:09:58;;;;;;;7.10;4.00;;;;;;;;;;6323830;28;24412;-85
2024/03/01 08:13:01;;;;;;;8.52;4.07;;;;;;;;;;6326164;28;24421;-86
2024/03/01 08:16:06;;;;;;;7.25;4.10;;;;;;;;;;6320762;28;24422;-86
2024/03/01 08:19:11;;;;;;;8.35;4.22;;;;;;;;;;6315497;28;24400;-86
2024/03/01 08:22:14;;;;;;;7.25;3.65;;;;;;;;;;6319343;28;24456;-86
2024/03/01 08:25:18;;;;;;;8.02;3.70;;;;;;;;;;6317857;28;24619;-85
2024/03/01 08:28:23;;;;;;;10.67;4.07;;;;;;;;;;6322160;28;24441;-88
2024/03/01 08:31:33;;;;;;;7.68;3.67;;;;;;;;;;6323346;28;24407;-88
2024/03/01 08:34:41;;;;;;;10.90;3.88;;;;;;;;;;6325524;28;24873;-86
2024/03/01 08:37:43;;;;;;;7.10;3.67;;;;;;;;;;6330802;28;24419;-87
2024/03/01 08:40:54;;;;;;;7.30;3.87;;;;;;;;;;6324422;28;24894;-86
2024/03/01 08:43:58;;;;;;;8.90;4.15;;;;;;;;;;6326801;28;24442;-85
2024/03/01 08:47:01;;;;;;;8.82;3.78;;;;;;;;;;6329177;28;24417;-84
2024/03/01 08:50:38;;;;;;;9.23;3.65;;;;;;;;;;6328507;28;24418;-88
2024/03/01 08:53:59;;;;;;;7.10;3.20;;;;;;;;;;6325546;28;25475;-85
2024/03/01 08:57:06;;;;;;;6.00;3.55;;;;;;;;;;6327905;28;24423;-86
2024/03/01 09:00:23;;;;;;;7.15;3.28;;;;;;;;;;6323307;28;24421;-85
2024/03/01 09:03:29;;;;;;;10.07;3.70;;;;;;;;;;6322977;28;24490;-85
2024/03/01 09:06:31;;;;;;;5.47;3.38;;;;;;;;;;6319005;28;24468;-84
2024/03/01 09:09:33;;;;;;;6.55;3.05;;;;;;;;;;6326032;28;24520;-84
2024/03/01 09:12:36;;;;;;;7.80;2.70;;;;;;;;;;6325816;28;24806;-86
2024/03/01 09:15:40;;;;;;;7.15;2.60;;;;;;;;;;6322880;28;24415;-88
2024/03/01 09:18:49;;;;;;;5.78;2.53;;;;;;;;;;6329344;28;24430;-86
2024/03/01 09:21:54;;;;;;;8.10;2.53;;;;;;;;;;6323803;28;24419;-87
2024/03/01 09:24:56;;;;;;;7.00;2.30;;;;;;;;;;6324125;28;24434;-86
2024/03/01 09:27:58;;;;;;;4.25;2.40;;;;;;;;;;6326347;28;24437;-84
2024/03/01 09:31:00;;;;;;;7.45;2.90;;;;;;;;;;6323290;28;24434;-87
2024/03/01 09:34:08;;;;;;;4.95;2.50;;;;;;;;;;6321196;28;24437;-86
2024/03/01 09:37:14;;;;;;;8.45;2.72;;;;;;;;;;6319428;28;24445;-85
2024/03/01 09:40:57;;;;;;;6.20;2.85;;;;;;;;;;6320211;28;24533;-85
2024/03/01 09:44:06;;;;;;;5.77;2.87;;;;;;;;;;6319548;28;24611;-86
2024/03/01 09:47:15;;;;;;;8.27;2.70;;;;;;;;;;6320793;28;24646;-85
2024/03/01 09:50:28;;;;;;;6.35;2.60;;;;;;;;;;6319341;28;24815;-85
2024/03/01 09:53:42;;;;;;;8.13;2.75;;;;;;;;;;6320584;28;24436;-86
2024/03/01 09:56:52;;;;;;;5.85;2.85;;;;;;;;;;6320472;28;24425;-86
2024/03/01 09:59:59;;;;;;;4.30;2.50;;;;;;;;;;6323608;28;24425;-85
2024/03/01 10:03:25;;;;;;;5.78;3.10;;;;;;;;;;6317574;28;24418;-86
2024/03/01 10:06:53;;;;;;;6.97;3.10;;;;;;;;;;6324795;28;24607;-86
2024/03/01 10:10:21;;;;;;;4.93;2.83;;;;;;;;;;6322149;28;24501;-86
2024/03/01 10:13:31;;;;;;;6.63;3.50;;;;;;;;;;6318927;28;24622;-86
2024/03/01 10:16:46;;;;;;;6.57;3.08;;;;;;;;;;6320354;28;24669;-86
2024/03/01 10:20:03;;;;;;;6.85;3.50;;;;;;;;;;6324459;28;24456;-85
2024/03/01 10:23:22;;;;;;;6.43;3.35;;;;;;;;;;6326008;28;24415;-84
2024/03/01 10:26:27;;;;;;;6.68;3.25;;;;;;;;;;6322654;28;24418;-85
2024/03/01 10:29:40;;;;;;;7.18;3.10;;;;;;;;;;6321493;28;24888;-87
2024/03/01 10:32:51;;;;;;;6.35;3.10;;;;;;;;;;6324856;28;24410;-88
2024/03/01 10:36:00;;;;;;;7.43;3.10;;;;;;;;;;6325472;28;24666;-86
2024/03/01 10:39:06;;;;;;;6.90;3.37;;;;;;;;;;6321953;28;25203;-85
2024/03/01 10:42:12;;;;;;;8.25;3.40;;;;;;;;;;6328300;28;24441;-86
2024/03/01 10:45:19;;;;;;;8.75;3.70;;;;;;;;;;6322290;28;24423;-85
2024/03/01 10:48:21;;;;;;;6.93;3.40;;;;;;;;;;6321122;28;24421;-86
2024/03/01 10:51:25;;;;;;;6.63;3.57;;;;;;;;;;6321183;28;24414;-85
2024/03/01 10:54:31;;;;;;;7.60;3.70;;;;;;;;;;6323525;28;24411;-85
2024/03/01 10:57:35;;;;;;;7.20;3.33;;;;;;;;;;6321858;28;24422;-85
2024/03/01 11:00:44;;;;;;;7.10;3.22;;;;;;;;;;6321658;28;24602;-86
2024/03/01 11:03:50;;;;;;;5.25;3.50;;;;;;;;;;6321482;28;24442;-86
2024/03/01 11:07:02;;;;;;;8.30;3.80;;;;;;;;;;6323641;28;24410;-84
2024/03/01 11:10:11;;;;;;;7.32;3.45;;;;;;;;;;6321719;28;24421;-84
2024/03/01 11:13:18;;;;;;;7.70;3.30;;;;;;;;;;6319974;28;24621;-85
2024/03/01 11:16:21;;;;;;;6.85;3.70;;;;;;;;;;6318965;28;24669;-85
2024/03/01 11:19:26;;;;;;;7.85;3.45;;;;;;;;;;6317051;28;24427;-85
2024/03/01 11:22:29;;;;;;;9.15;4.15;;;;;;;;;;6315955;28;24403;-85
2024/03/01 11:25:42;;;;;;;6.20;3.63;;;;;;;;;;6317182;28;24433;-85
2024/03/01 11:28:44;;;;;;;5.00;2.80;;;;;;;;;;6289915;28;24821;-85
2024/03/01 11:31:48;;;;;;;5.97;3.00;;;;;;;;;;6290109;28;24423;-84
2024/03/01 11:34:58;;;;;;;6.15;3.10;;;;;;;;;;6290709;28;24433;-86
2024/03/01 11:38:03;;;;;;;5.05;2.70;;;;;;;;;;6293554;28;24415;-84
2024/03/01 11:41:17;;;;;;;4.78;2.50;;;;;;;;;;6292539;28;24514;-86
2024/03/01 11:44:27;;;;;;;158.73;78.15;;;;;;;;;;6298816;28;24418;-86
2024/03/01 11:47:35;;;;;;;103.28;57.03;;;;;;;;;;6296926;28;24422;-87
2024/03/01 11:50:44;;;;;;;134.18;71.68;;;;;;;;;;6295454;28;24418;-86
2024/03/01 11:54:02;;;;;;;45.67;25.53;;;;;;;;;;6292864;28;24422;-86
2024/03/01 11:57:12;;;;;;;64.63;32.05;;;;;;;;;;6292370;28;24434;-85
2024/03/01 12:00:33;;;;;;;46.67;23.17;;;;;;;;;;6293397;28;24473;-86
2024/03/01 12:04:12;;;;;;;39.20;21.67;;;;;;;;;;6291580;28;24430;-85
2024/03/01 12:07:27;;;;;;;4.80;3.20;;;;;;;;;;6286660;28;24433;-84
2024/03/01 12:10:38;;;;;;;6.32;3.20;;;;;;;;;;6295068;28;24446;-84
2024/03/01 12:13:46;;;;;;;8.85;3.30;;;;;;;;;;6290240;28;24445;-85
2024/03/01 12:16:54;;;;;;;6.13;3.50;;;;;;;;;;6294634;28;24414;-84
2024/03/01 12:19:58;;;;;;;5.17;3.43;;;;;;;;;;6294711;28;24469;-85
2024/03/01 12:23:11;;;;;;;6.55;4.10;;;;;;;;;;6291513;28;24430;-86
2024/03/01 12:26:15;;;;;;;5.90;3.90;;;;;;;;;;6298416;28;24491;-84
2024/03/01 12:29:29;;;;;;;6.00;3.70;;;;;;;;;;6327498;28;24425;-84
2024/03/01 12:32:40;;;;;;;8.53;3.37;;;;;;;;;;6321053;28;24774;-84
2024/03/01 12:35:50;;;;;;;5.53;2.80;;;;;;;;;;6322527;28;24415;-86
2024/03/01 12:39:00;;;;;;;5.53;2.70;;;;;;;;;;6320058;28;24432;-86
2024/03/01 12:42:06;;;;;;;4.82;2.67;;;;;;;;;;6319817;28;24960;-84
2024/03/01 12:45:17;;;;;;;4.38;2.22;;;;;;;;;;6325946;28;24422;-85
2024/03/01 12:48:23;;;;;;;3.78;2.00;;;;;;;;;;6321390;28;24419;-84
2024/03/01 12:51:28;;;;;;;3.33;2.30;;;;;;;;;;6319938;28;24410;-86
2024/03/01 12:54:37;;;;;;;4.65;2.75;;;;;;;;;;6322788;28;24413;-84
2024/03/01 12:57:48;;;;;;;4.73;3.57;;;;;;;;;;6317000;28;24426;-83
2024/03/01 13:00:58;;;;;;;6.25;3.55;;;;;;;;;;6316538;28;24482;-85
2024/03/01 13:04:11;;;;;;;7.38;3.75;;;;;;;;;;6317151;28;24631;-87
2024/03/01 13:07:15;;;;;;;6.60;4.10;;;;;;;;;;6321721;28;24415;-86
2024/03/01 13:10:19;;;;;;;6.37;3.93;;;;;;;;;;6321773;28;24437;-85
2024/03/01 13:13:23;;;;;;;6.20;4.10;;;;;;;;;;6328434;28;24441;-84
2024/03/01 13:16:27;;;;;;;6.18;4.07;;;;;;;;;;6326959;28;25144;-84
2024/03/01 13:19:34;;;;;;;6.75;4.22;;;;;;;;;;6318223;28;24815;-84
2024/03/01 13:22:36;;;;;;;7.37;4.40;;;;;;;;;;6321354;28;24520;-86
2024/03/01 13:25:46;;;;;;;6.63;4.57;;;;;;;;;;6326675;28;24417;-85
2024/03/01 13:28:54;;;;;;;7.32;4.95;;;;;;;;;;6321798;28;24446;-85
2024/03/01 13:32:07;;;;;;;6.97;4.57;;;;;;;;;;6328420;28;24415;-85
2024/03/01 13:35:13;;;;;;;10.25;5.20;;;;;;;;;;6319736;28;24413;-85
2024/03/01 13:38:23;;;;;;;6.53;4.60;;;;;;;;;;6324850;28;24433;-84
2024/03/01 13:41:28;;;;;;;6.95;4.85;;;;;;;;;;6324574;28;24411;-86
2024/03/01 13:44:32;;;;;;;7.30;4.53;;;;;;;;;;6321601;28;24426;-84
2024/03/01 13:47:36;;;;;;;56.43;34.80;;;;;;;;;;6326043;28;24425;-86
2024/03/01 13:50:39;;;;;;;31.75;19.73;;;;;;;;;;6322524;28;24426;-86
2024/03/01 13:53:45;;;;;;;7.55;4.70;;;;;;;;;;6326147;28;24435;-85
2024/03/01 13:56:47;;;;;;;7.37;4.57;;;;;;;;;;6321365;28;24471;-84
2024/03/01 13:59:49;;;;;;;6.70;4.32;;;;;;;;;;6325833;28;24491;-86
2024/03/01 14:02:53;;;;;;;8.60;5.10;;;;;;;;;;6318222;28;24485;-85
2024/03/01 14:05:58;;;;;;;5.97;4.18;;;;;;;;;;6322696;28;24633;-84
2024/03/01 14:09:12;;;;;;;4.95;3.65;;;;;;;;;;6321687;28;24418;-86
2024/03/01 14:12:14;;;;;;;6.55;4.35;;;;;;;;;;6320356;28;24463;-85
2024/03/01 14:15:16;;;;;;;6.18;4.10;;;;;;;;;;6317064;28;24489;-85
2024/03/01 14:18:19;;;;;;;5.50;3.90;;;;;;;;;;6321734;28;24619;-85
2024/03/01 14:21:21;;;;;;;5.68;4.20;;;;;;;;;;6316812;28;24426;-85
2024/03/01 14:24:23;;;;;;;5.38;3.70;;;;;;;;;;6315364;28;24433;-86
2024/03/01 14:27:25;;;;;;;5.07;3.38;;;;;;;;;;6314265;28;24483;-84
2024/03/01 14:30:27;;;;;;;6.10;3.90;;;;;;;;;;6319659;28;24485;-85
2024/03/01 14:33:31;;;;;;;5.55;3.55;;;;;;;;;;6321500;28;24486;-84
2024/03/01 14:36:44;;;;;;;5.07;3.90;;;;;;;;;;6320979;28;24440;-84
2024/03/01 14:39:45;;;;;;;4.53;3.60;;;;;;;;;;6326643;28;24506;-84
2024/03/01 14:42:57;;;;;;;6.10;3.78;;;;;;;;;;6322553;28;24426;-85
2024/03/01 14:45:59;;;;;;;5.53;3.70;;;;;;;;;;6325175;28;24848;-87
2024/03/01 14:49:03;;;;;;;4.68;3.78;;;;;;;;;;6322033;28;24429;-86
2024/03/01 14:52:11;;;;;;;5.53;3.60;;;;;;;;;;6319527;28;24472;-86
2024/03/01 14:55:13;;;;;;;6.38;3.92;;;;;;;;;;6322469;28;24419;-86
2024/03/01 14:58:16;;;;;;;7.72;4.03;;;;;;;;;;6320784;28;24839;-85
2024/03/01 15:01:18;;;;;;;6.30;3.88;;;;;;;;;;6321754;28;24434;-85
2024/03/01 15:04:22;;;;;;;5.97;3.60;;;;;;;;;;6324073;28;24461;-85
2024/03/01 15:07:26;;;;;;;5.20;3.78;;;;;;;;;;6318549;28;24437;-85
2024/03/01 15:10:28;;;;;;;6.57;4.30;;;;;;;;;;6320511;28;24447;-86
2024/03/01 15:13:30;;;;;;;5.43;3.67;;;;;;;;;;6330229;28;24422;-85
2024/03/01 15:16:32;;;;;;;7.83;3.77;;;;;;;;;;6333515;28;25199;-85
2024/03/01 15:19:41;;;;;;;6.22;3.85;;;;;;;;;;6326378;28;25296;-85
2024/03/01 15:22:53;;;;;;;6.80;4.00;;;;;;;;;;6326050;28;24447;-87
2024/03/01 15:26:03;;;;;;;7.75;4.18;;;;;;;;;;6322069;28;24433;-87
2024/03/01 15:29:07;;;;;;;6.57;4.30;;;;;;;;;;6299499;28;24422;-83
2024/03/01 15:32:09;;;;;;;6.32;4.47;;;;;;;;;;6299408;28;24410;-86
2024/03/01 15:35:12;;;;;;;6.97;4.47;;;;;;;;;;6300000;28;24515;-85
2024/03/01 15:38:14;;;;;;;9.32;4.60;;;;;;;;;;6303642;28;24494;-84
2024/03/01 15:41:16;;;;;;;6.68;4.50;;;;;;;;;;6302358;28;24441;-88
2024/03/01 15:44:19;;;;;;;5.70;4.43;;;;;;;;;;6302619;28;24427;-85
2024/03/01 15:47:21;;;;;;;5.68;4.38;;;;;;;;;;6301838;28;24423;-84
2024/03/01 15:50:24;;;;;;;6.05;4.55;;;;;;;;;;6298696;28;24422;-84
2024/03/01 15:53:26;;;;;;;7.60;4.82;;;;;;;;;;6299359;28;24435;-84
2024/03/01 15:56:28;;;;;;;6.72;4.68;;;;;;;;;;6294514;28;24422;-85
2024/03/01 15:59:30;;;;;;;6.28;4.95;;;;;;;;;;6299267;28;24431;-86
2024/03/01 16:02:34;;;;;;;6.68;5.03;;;;;;;;;;6299091;28;24673;-85
2024/03/01 16:05:39;;;;;;;7.32;4.80;;;;;;;;;;6302740;28;24438;-84
2024/03/01 16:08:41;;;;;;;8.35;4.93;;;;;;;;;;6301553;28;24528;-85
2024/03/01 16:11:43;;;;;;;7.28;5.07;;;;;;;;;;6298164;28;24430;-85
2024/03/01 16:14:48;;;;;;;6.28;4.93;;;;;;;;;;6300152;28;24415;-85
2024/03/01 16:17:50;;;;;;;6.72;5.38;;;;;;;;;;6308543;28;24418;-84
2024/03/01 16:20:54;;;;;;;7.13;5.60;;;;;;;;;;6302044;28;24628;-85
2024/03/01 16:23:56;;;;;;;8.07;5.63;;;;;;;;;;6302637;28;24417;-86
2024/03/01 16:26:58;;;;;;;7.35;5.60;;;;;;;;;;6313983;28;24500;-84
2024/03/01 16:30:00;;;;;;;7.20;5.17;;;;;;;;;;6325989;28;24442;-86
2024/03/01 16:33:02;;;;;;;8.35;5.07;;;;;;;;;;6328883;28;24687;-85
2024/03/01 16:36:07;;;;;;;5.50;4.07;;;;;;;;;;6323359;28;24425;-87
2024/03/01 16:39:19;;;;;;;5.32;3.78;;;;;;;;;;6321343;28;24419;-86
2024/03/01 16:42:41;;;;;;;6.65;3.88;;;;;;;;;;6326518;28;24422;-84
2024/03/01 16:45:43;;;;;;;5.45;3.53;;;;;;;;;;6320141;28;24475;-85
2024/03/01 16:48:48;;;;;;;5.63;3.57;;;;;;;;;;6321176;28;24520;-85
2024/03/01 16:51:55;;;;;;;4.75;3.33;;;;;;;;;;6327014;28;24498;-87
2024/03/01 16:54:56;;;;;;;4.60;3.15;;;;;;;;;;6325142;28;24420;-86
2024/03/01 16:57:58;;;;;;;4.88;2.85;;;;;;;;;;6321342;28;24426;-85
2024/03/01 17:01:00;;;;;;;4.18;2.55;;;;;;;;;;6322013;28;24433;-86
2024/03/01 17:04:05;;;;;;;5.20;3.20;;;;;;;;;;6320483;28;24457;-86
2024/03/01 17:07:21;;;;;;;4.65;3.00;;;;;;;;;;6319377;28;24442;-85
2024/03/01 17:10:24;;;;;;;4.60;2.97;;;;;;;;;;6325964;28;24438;-84
2024/03/01 17:13:26;;;;;;;4.57;3.00;;;;;;;;;;6323672;28;24664;-84
2024/03/01 17:16:30;;;;;;;6.32;4.03;;;;;;;;;;6322409;28;24498;-86
2024/03/01 17:19:43;;;;;;;7.07;4.63;;;;;;;;;;6322736;28;24425;-84
2024/03/01 17:22:47;;;;;;;8.27;5.67;;;;;;;;;;6322268;28;24596;-85
2024/03/01 17:25:50;;;;;;;7.97;5.25;;;;;;;;;;6317868;28;24422;-85
2024/03/01 17:28:52;;;;;;;7.85;5.88;;;;;;;;;;6319479;28;24460;-83
2024/03/01 17:31:55;;;;;;;9.63;6.05;;;;;;;;;;6317515;28;24498;-86
2024/03/01 17:34:57;;;;;;;8.27;6.10;;;;;;;;;;6319098;28;24409;-85
2024/03/01 17:38:00;;;;;;;9.07;6.03;;;;;;;;;;6320780;28;24418;-84
2024/03/01 17:41:02;;;;;;;8.47;6.60;;;;;;;;;;6319115;28;24639;-87
2024/03/01 17:44:04;;;;;;;8.43;5.90;;;;;;;;;;6319095;28;24641;-85
2024/03/01 17:47:06;;;;;;;8.35;6.20;;;;;;;;;;6322252;28;24480;-85
2024/03/01 17:50:09;;;;;;;10.63;6.60;;;;;;;;;;6323262;28;24801;-86
2024/03/01 17:53:12;;;;;;;9.50;6.57;;;;;;;;;;6320700;28;24430;-86
2024/03/01 17:56:16;;;;;;;8.80;7.05;;;;;;;;;;6318822;28;24430;-85
2024/03/01 17:59:18;;;;;;;8.30;7.07;;;;;;;;;;6320196;28;24406;-85
2024/03/01 18:02:20;;;;;;;9.18;7.10;;;;;;;;;;6327582;28;24434;-87
2024/03/01 18:05:21;;;;;;;8.95;6.68;;;;;;;;;;6324870;28;24421;-85
2024/03/01 18:08:24;;;;;;;8.55;6.53;;;;;;;;;;6313594;28;24429;-85
2024/03/01 18:11:26;;;;;;;8.32;5.88;;;;;;;;;;6322263;28;24422;-85
2024/03/01 18:14:28;;;;;;;7.60;6.28;;;;;;;;;;6324028;28;24418;-85
2024/03/01 18:17:30;;;;;;;8.53;6.20;;;;;;;;;;6320588;28;24418;-86